createdAt,value
2019-05-19T00:02:07.774Z,20.88
2019-05-19T00:06:14.458Z,20.05
2019-05-19T00:10:23.643Z,18.97
2019-05-19T00:14:31.085Z,19.75
2019-05-19T00:18:39.749Z,18.65
2019-05-19T00:22:50.033Z,21.42
2019-05-19T00:26:59.551Z,20.97
2019-05-19T00:31:06.568Z,21.23
2019-05-19T00:35:13.368Z,20.00
2019-05-19T00:39:20.156Z,20.82
2019-05-19T00:43:26.858Z,20.70
2019-05-19T00:47:34.495Z,21.48
2019-05-19T00:51:41.470Z,22.37
2019-05-19T00:55:54.910Z,20.35
2019-05-19T01:00:02.240Z,20.80
2019-05-19T01:04:09.943Z,20.02
2019-05-19T01:08:16.723Z,21.50
2019-05-19T01:12:23.581Z,20.25
2019-05-19T01:16:30.424Z,22.82
2019-05-19T01:20:37.558Z,21.65
2019-05-19T01:24:44.606Z,22.25
2019-05-19T01:28:51.403Z,20.68
2019-05-19T01:32:58.112Z,23.20
2019-05-19T01:37:04.949Z,22.58
2019-05-19T01:41:12.000Z,22.00
2019-05-19T01:45:18.704Z,21.85
2019-05-19T01:49:25.433Z,22.37
2019-05-19T01:53:32.556Z,21.62
2019-05-19T01:57:39.613Z,20.62
2019-05-19T02:01:46.356Z,21.25
2019-05-19T02:05:53.539Z,22.02
2019-05-19T02:10:00.590Z,21.35
2019-05-19T02:14:07.476Z,22.00
2019-05-19T02:18:15.035Z,20.37
2019-05-19T02:22:21.796Z,21.05
2019-05-19T02:26:28.591Z,21.07
2019-05-19T02:30:36.850Z,21.57
2019-05-19T02:34:43.816Z,23.50
2019-05-19T02:38:50.810Z,23.07
2019-05-19T02:42:57.562Z,21.93
2019-05-19T02:47:04.835Z,22.37
2019-05-19T02:51:12.296Z,22.42
2019-05-19T02:55:18.994Z,22.30
2019-05-19T02:59:26.208Z,21.30
2019-05-19T03:03:33.236Z,21.82
2019-05-19T03:07:40.768Z,23.02
2019-05-19T03:11:47.539Z,22.55
2019-05-19T03:15:54.265Z,21.95
2019-05-19T03:20:01.073Z,20.70
2019-05-19T03:24:07.950Z,22.73
2019-05-19T03:28:14.967Z,20.95
2019-05-19T03:32:38.297Z,21.70
2019-05-19T03:36:44.999Z,22.77
2019-05-19T03:40:52.752Z,22.93
2019-05-19T03:44:59.709Z,21.02
2019-05-19T03:49:06.503Z,22.48
2019-05-19T03:53:13.225Z,23.18
2019-05-19T03:57:20.007Z,25.08
2019-05-19T04:01:26.971Z,24.30
2019-05-19T04:05:35.235Z,22.00
2019-05-19T04:09:41.944Z,23.35
2019-05-19T04:13:48.694Z,21.20
2019-05-19T04:17:55.378Z,22.30
2019-05-19T04:22:02.155Z,21.30
2019-05-19T04:26:09.153Z,22.70
2019-05-19T04:30:15.855Z,22.98
2019-05-19T04:34:22.670Z,21.57
2019-05-19T04:38:29.363Z,22.85
2019-05-19T04:42:36.088Z,21.00
2019-05-19T04:46:42.733Z,20.60
2019-05-19T04:50:50.508Z,21.73
2019-05-19T04:54:57.217Z,21.42
2019-05-19T04:59:03.978Z,22.25
2019-05-19T05:03:10.661Z,20.20
2019-05-19T05:07:17.409Z,21.17
2019-05-19T05:11:24.256Z,21.05
2019-05-19T05:15:31.059Z,21.77
2019-05-19T05:19:38.524Z,21.52
2019-05-19T05:23:45.232Z,20.85
2019-05-19T05:27:51.961Z,20.17
2019-05-19T05:31:59.090Z,20.05
2019-05-19T05:36:05.816Z,21.02
2019-05-19T05:40:12.795Z,19.57
2019-05-19T05:44:19.485Z,21.00
2019-05-19T05:48:26.230Z,21.55
2019-05-19T05:52:38.591Z,24.27
2019-05-19T05:56:41.336Z,19.30
2019-05-19T06:00:48.304Z,27.15
2019-05-19T06:04:55.456Z,39.23
2019-05-19T06:09:02.358Z,30.48
2019-05-19T06:13:09.352Z,34.95
2019-05-19T06:17:17.504Z,22.58
2019-05-19T06:21:24.985Z,38.05
2019-05-19T06:25:31.797Z,39.10
2019-05-19T06:29:38.523Z,31.95
2019-05-19T06:33:45.278Z,20.85
2019-05-19T06:37:52.036Z,21.23
2019-05-19T06:41:59.073Z,21.45
2019-05-19T06:46:08.497Z,24.27
2019-05-19T06:50:15.384Z,25.53
2019-05-19T06:54:22.068Z,26.85
2019-05-19T06:58:28.790Z,32.98
2019-05-19T07:02:35.719Z,32.25
2019-05-19T07:06:42.514Z,32.05
2019-05-19T07:10:49.217Z,39.40
2019-05-19T07:14:56.225Z,33.45
2019-05-19T07:19:03.013Z,27.27
2019-05-19T07:23:10.120Z,30.37
2019-05-19T07:27:16.903Z,28.87
2019-05-19T07:31:23.645Z,27.20
2019-05-19T07:35:30.343Z,29.48
2019-05-19T07:39:37.088Z,21.70
2019-05-19T07:43:43.921Z,28.92
2019-05-19T07:47:50.663Z,30.55
2019-05-19T07:51:57.469Z,29.70
2019-05-19T07:56:04.184Z,24.20
2019-05-19T08:00:10.980Z,20.80
2019-05-19T08:04:18.262Z,24.82
2019-05-19T08:08:24.996Z,33.78
2019-05-19T08:12:31.893Z,21.62
2019-05-19T08:16:38.629Z,27.87
2019-05-19T08:20:45.895Z,22.13
2019-05-19T08:24:52.557Z,21.15
2019-05-19T08:28:59.289Z,23.30
2019-05-19T08:33:06.039Z,29.63
2019-05-19T08:37:12.767Z,22.20
2019-05-19T08:41:19.384Z,26.62
2019-05-19T08:45:26.185Z,18.52
2019-05-19T08:49:32.974Z,20.27
2019-05-19T08:53:39.703Z,17.85
2019-05-19T08:57:46.507Z,20.15
2019-05-19T09:01:53.231Z,19.23
2019-05-19T09:06:00.034Z,17.85
2019-05-19T09:10:08.053Z,20.97
2019-05-19T09:14:14.801Z,17.45
2019-05-19T09:18:21.594Z,20.02
2019-05-19T09:22:28.314Z,17.95
2019-05-19T09:26:34.968Z,17.23
2019-05-19T09:30:41.792Z,17.97
2019-05-19T09:34:49.876Z,16.40
2019-05-19T09:38:56.629Z,18.17
2019-05-19T09:43:03.934Z,18.23
2019-05-19T09:47:10.996Z,17.30
2019-05-19T09:51:18.777Z,17.48
2019-05-19T09:55:25.607Z,20.72
2019-05-19T09:59:32.425Z,16.75
2019-05-19T10:03:39.173Z,16.85
2019-05-19T10:07:46.333Z,17.90
2019-05-19T10:12:04.484Z,15.43
2019-05-19T10:16:11.266Z,19.27
2019-05-19T10:20:18.101Z,19.42
2019-05-19T10:24:25.101Z,19.48
2019-05-19T10:28:31.839Z,21.50
2019-05-19T10:32:38.555Z,18.98
2019-05-19T10:36:45.209Z,21.30
2019-05-19T10:40:51.850Z,21.40
2019-05-19T10:44:58.720Z,16.30
2019-05-19T10:49:05.591Z,22.52
2019-05-19T10:53:12.790Z,20.52
2019-05-19T10:57:19.510Z,19.73
2019-05-19T11:01:26.361Z,19.92
2019-05-19T11:05:33.138Z,19.50
2019-05-19T11:09:40.016Z,18.92
2019-05-19T11:13:49.576Z,17.73
2019-05-19T11:17:57.493Z,19.27
2019-05-19T11:22:05.266Z,18.32
2019-05-19T11:26:14.398Z,14.00
2019-05-19T11:30:21.256Z,11.73
2019-05-19T11:34:28.839Z,10.28
2019-05-19T11:38:35.578Z,13.72
2019-05-19T11:42:46.769Z,10.78
2019-05-19T11:46:52.285Z,10.88
2019-05-19T11:50:59.064Z,10.60
2019-05-19T11:55:05.944Z,12.73
2019-05-19T11:59:12.965Z,9.90
2019-05-19T12:03:19.686Z,10.78
2019-05-19T12:07:26.451Z,8.75
2019-05-19T12:11:33.190Z,8.15
2019-05-19T12:15:39.992Z,9.03
2019-05-19T12:19:46.695Z,10.10
2019-05-19T12:23:53.382Z,12.05
2019-05-19T12:28:01.454Z,9.78
2019-05-19T12:32:08.219Z,12.68
2019-05-19T12:36:15.061Z,11.68
2019-05-19T12:40:22.691Z,10.23
2019-05-19T12:44:29.692Z,12.00
2019-05-19T12:48:36.640Z,10.23
2019-05-19T12:52:43.466Z,9.73
2019-05-19T12:56:50.218Z,9.53
2019-05-19T13:00:56.981Z,11.45
2019-05-19T13:05:05.835Z,9.55
2019-05-19T13:09:12.683Z,8.70
2019-05-19T13:13:19.472Z,6.35
2019-05-19T13:17:26.243Z,9.20
2019-05-19T13:21:32.899Z,5.85
2019-05-19T13:25:39.786Z,8.50
2019-05-19T13:29:46.788Z,5.12
2019-05-19T13:33:53.589Z,6.87
2019-05-19T13:38:00.272Z,7.40
2019-05-19T13:42:07.063Z,6.95
2019-05-19T13:46:14.197Z,6.17
2019-05-19T13:50:21.001Z,6.50
2019-05-19T13:54:27.848Z,7.05
2019-05-19T13:58:34.549Z,6.67
2019-05-19T14:02:41.891Z,6.90
2019-05-19T14:06:48.682Z,7.35
2019-05-19T14:10:55.668Z,8.60
2019-05-19T14:15:04.266Z,7.60
2019-05-19T14:19:11.190Z,6.90
2019-05-19T14:23:17.915Z,8.73
2019-05-19T14:27:30.433Z,7.33
2019-05-19T14:31:33.215Z,6.70
2019-05-19T14:35:41.293Z,6.65
2019-05-19T14:39:47.964Z,7.10
2019-05-19T14:43:54.702Z,6.37
2019-05-19T14:48:02.700Z,9.13
2019-05-19T14:52:10.403Z,7.33
2019-05-19T14:56:17.288Z,7.20
2019-05-19T15:00:25.428Z,8.10
2019-05-19T15:04:32.813Z,8.55
2019-05-19T15:08:39.674Z,8.38
2019-05-19T15:12:46.364Z,7.43
2019-05-19T15:16:53.122Z,7.50
2019-05-19T15:21:01.624Z,6.53
2019-05-19T15:25:08.422Z,9.23
2019-05-19T15:29:15.183Z,6.72
2019-05-19T15:33:21.870Z,6.62
2019-05-19T15:37:28.626Z,6.30
2019-05-19T15:41:35.285Z,7.00
2019-05-19T15:45:42.823Z,7.15
2019-05-19T15:49:49.592Z,7.85
2019-05-19T15:53:56.541Z,6.53
2019-05-19T15:58:15.444Z,6.55
2019-05-19T16:02:11.820Z,6.77
2019-05-19T16:06:18.539Z,6.90
2019-05-19T16:10:25.339Z,6.33
2019-05-19T16:14:32.190Z,6.03
2019-05-19T16:18:39.866Z,7.83
2019-05-19T16:22:46.708Z,5.95
2019-05-19T16:26:53.420Z,8.05
2019-05-19T16:31:01.957Z,11.35
2019-05-19T16:35:08.784Z,9.00
2019-05-19T16:39:16.480Z,6.78
2019-05-19T16:43:23.472Z,6.87
2019-05-19T16:47:30.241Z,6.92
2019-05-19T16:51:37.294Z,7.95
2019-05-19T16:55:44.152Z,7.00
2019-05-19T16:59:51.502Z,6.72
2019-05-19T17:03:58.311Z,6.40
2019-05-19T17:08:05.163Z,6.50
2019-05-19T17:16:46.323Z,7.22
2019-05-19T17:20:53.128Z,7.17
2019-05-19T17:29:30.373Z,8.40
2019-05-19T17:33:38.137Z,6.25
2019-05-19T17:37:46.483Z,7.62
2019-05-19T17:41:53.317Z,7.33
2019-05-19T17:46:00.238Z,7.30
2019-05-19T17:50:07.059Z,8.28
2019-05-19T17:54:13.951Z,16.42
2019-05-19T17:58:21.704Z,13.93
2019-05-19T18:02:28.940Z,10.43
2019-05-19T18:06:35.920Z,8.40
2019-05-19T18:10:43.789Z,28.47
2019-05-19T18:14:52.532Z,9.48
2019-05-19T18:18:59.321Z,7.85
2019-05-19T18:23:06.187Z,8.83
2019-05-19T18:27:13.057Z,10.48
2019-05-19T18:31:20.276Z,10.40
2019-05-19T18:35:27.104Z,11.57
2019-05-19T18:39:34.344Z,7.25
2019-05-19T18:43:41.262Z,8.40
2019-05-19T18:47:51.410Z,6.97
2019-05-19T18:51:59.829Z,8.18
2019-05-19T19:00:15.712Z,7.03
2019-05-19T19:04:24.635Z,8.93
2019-05-19T19:08:32.048Z,7.95
2019-05-19T19:12:39.081Z,8.15
2019-05-19T19:16:47.526Z,7.75
2019-05-19T19:20:54.414Z,8.58
2019-05-19T19:25:03.330Z,9.78
2019-05-19T19:29:10.180Z,7.85
2019-05-19T19:33:17.007Z,8.30
2019-05-19T19:37:23.984Z,7.92
2019-05-19T19:41:33.339Z,9.70
2019-05-19T19:45:43.002Z,9.08
2019-05-19T19:49:55.835Z,9.13
2019-05-19T19:54:03.681Z,9.25
2019-05-19T19:58:10.527Z,10.10
2019-05-19T20:02:19.588Z,9.05
2019-05-19T20:06:26.753Z,9.53
2019-05-19T20:10:35.148Z,9.53
2019-05-19T20:14:42.171Z,8.88
2019-05-19T20:18:48.922Z,8.90
2019-05-19T20:22:56.856Z,9.48
2019-05-19T20:27:03.691Z,9.78
2019-05-19T20:31:10.589Z,8.73
2019-05-19T20:35:17.434Z,9.30
2019-05-19T20:39:24.356Z,8.43
2019-05-19T20:43:31.315Z,8.75
2019-05-19T20:47:38.130Z,8.13
2019-05-19T20:51:45.359Z,12.88
2019-05-19T20:55:52.291Z,8.80
2019-05-19T21:00:00.096Z,8.55
2019-05-19T21:04:06.893Z,10.30
2019-05-19T21:08:13.715Z,10.53
2019-05-19T21:12:20.539Z,8.33
2019-05-19T21:16:28.349Z,8.33
2019-05-19T21:20:48.488Z,7.95
2019-05-19T21:24:55.519Z,8.33
2019-05-19T21:29:02.409Z,9.78
2019-05-19T21:33:10.790Z,8.55
2019-05-19T21:37:17.883Z,7.92
2019-05-19T21:41:24.608Z,8.25
2019-05-19T21:45:31.470Z,8.58
2019-05-19T21:49:39.471Z,9.03
2019-05-19T21:53:48.145Z,8.00
2019-05-19T21:57:54.958Z,7.83
2019-05-19T22:02:03.779Z,8.30
2019-05-19T22:06:10.694Z,8.00
2019-05-19T22:10:17.646Z,7.90
2019-05-19T22:14:24.452Z,8.50
2019-05-19T22:18:35.747Z,8.30
2019-05-19T22:22:42.557Z,7.60
2019-05-19T22:26:49.648Z,8.83
2019-05-19T22:30:56.648Z,8.38
2019-05-19T22:35:03.551Z,7.65
2019-05-19T22:39:10.608Z,7.80
2019-05-19T22:43:17.490Z,7.78
2019-05-19T22:47:24.448Z,8.25
2019-05-19T22:51:32.936Z,8.08
2019-05-19T22:55:40.670Z,7.60
2019-05-19T22:59:50.216Z,8.00
2019-05-19T23:03:57.967Z,7.27
2019-05-19T23:08:08.246Z,7.53
2019-05-19T23:12:15.229Z,7.40
2019-05-19T23:16:23.754Z,8.08
2019-05-19T23:20:32.151Z,7.85
2019-05-19T23:24:39.064Z,8.55
2019-05-19T23:28:46.259Z,8.13
2019-05-19T23:32:53.041Z,8.38
2019-05-19T23:36:59.840Z,8.55
2019-05-19T23:41:06.669Z,10.38
2019-05-19T23:45:14.579Z,8.68
2019-05-19T23:49:21.368Z,8.43
2019-05-19T23:53:29.413Z,7.60
2019-05-19T23:57:36.208Z,8.18
